Latest Weather Observations for Richmond

IDN60901

Issued at 7:05 am EST Wednesday 3 September 2014 (issued every 10 minutes, with the page automatically refreshed every 10 minutes)

About weather observations | Map of Sydney area stations | Latest observations for Sydney area | Other Formats
Station Details ID: 067105 Name: RICHMOND RAAF Lat: -33.60 Lon: 150.78 Height: 19.0 m
Data from the previous 72 hours. | See also: Recent months at Richmond
Date/Time
EST
Tmp

°C
App
Tmp
°C
Dew
Point
°C
Rel
Hum
%
Delta-T

°C
Wind Press
QNH
hPa
Press
MSL
hPa
Rain
since
9 am
mm
Dir
 
Spd
km/h
Gust
km/h
Spd
kts
Gust
kts
03/07:00am 10.8 5.2 1.4 52 3.9 SW 20 28 11 15 1013.8 1013.8 0.6
03/06:30am 10.7 4.4 1.3 52 3.9 SW 24 33 13 18 1013.4 - 0.6
03/06:00am 10.5 3.7 0.5 50 4.1 SW 26 41 14 22 1013.2 1013.2 0.6
03/05:30am 10.6 4.5 0.6 50 4.1 SW 22 35 12 19 1012.8 - 0.6
03/05:00am 10.9 4.9 0.9 50 4.1 SW 22 37 12 20 1012.4 1012.4 0.6
03/04:30am 11.2 5.3 1.7 52 4.0 SW 22 30 12 16 1012.1 - 0.6
03/04:00am 11.3 5.0 1.5 51 4.1 SW 24 39 13 21 1011.7 1011.7 0.6
03/03:30am 11.3 4.6 1.5 51 4.1 SW 26 39 14 21 1011.5 - 0.6
03/03:00am 11.4 5.1 1.6 51 4.1 SW 24 37 13 20 1011.3 1011.3 0.6
03/02:30am 11.6 5.3 1.8 51 4.2 SW 24 35 13 19 1011.5 - 0.6
03/02:00am 11.5 5.3 2.0 52 4.1 SW 24 43 13 23 1011.8 1011.8 0.6
03/01:30am 11.4 6.0 2.4 54 3.9 SW 20 35 11 19 1012.1 - 0.6
03/01:00am 11.2 5.1 2.8 56 3.6 SW 24 41 13 22 1012.2 1012.2 0.6
03/12:30am 11.2 5.1 3.0 57 3.6 SW 24 33 13 18 1012.1 - 0.6
03/12:00am 10.4 6.0 4.5 67 2.6 SW 17 24 9 13 1012.1 1012.1 0.6
 
Date/Time
EST
Tmp

°C
App
Tmp
°C
Dew
Point
°C
Rel
Hum
%
Delta-T

°C
Wind Press
QNH
hPa
Press
MSL
hPa
Rain
since
9 am
mm
Dir
 
Spd
km/h
Gust
km/h
Spd
kts
Gust
kts
02/11:30pm 9.5 6.3 5.1 74 2.0 SSW 11 13 6 7 1012.4 - 0.6
02/11:00pm 9.3 5.8 5.5 77 1.7 SSW 13 19 7 10 1012.6 1012.6 0.6
02/10:30pm 9.2 4.1 5.8 79 1.6 WSW 22 28 12 15 1012.7 - 0.6
02/10:00pm 9.4 2.7 5.8 78 1.6 SW 30 43 16 23 1012.9 1012.9 0.2
02/09:36pm 11.3 4.0 4.5 63 3.1 SW 32 50 17 27 1012.8 - 0.0
02/09:30pm 11.6 3.3 4.1 60 3.4 SSW 37 52 20 28 1012.7 - 0.0
02/09:08pm 12.3 4.9 4.0 57 3.7 SSW 32 52 17 28 1012.5 - 0.0
02/09:00pm 12.2 6.8 4.4 59 3.5 SSW 22 41 12 22 1012.4 1012.4 0.0
02/08:30pm 12.7 8.2 4.2 56 3.9 SSW 17 24 9 13 1012.0 - 0.0
02/08:00pm 12.4 7.9 4.1 57 3.7 SW 17 24 9 13 1011.6 1011.6 0.0
02/07:30pm 12.5 8.0 4.0 56 3.8 SW 17 28 9 15 1011.1 - 0.0
02/07:00pm 12.6 7.7 4.3 57 3.8 WSW 19 30 10 16 1010.9 1010.9 0.0
02/06:30pm 12.9 8.9 5.1 59 3.6 WSW 15 24 8 13 1010.7 - 0.0
02/06:00pm 13.5 10.3 5.2 57 3.9 SW 11 15 6 8 1010.4 1010.4 0.0
02/05:30pm 13.8 8.5 4.9 55 4.1 SW 22 30 12 16 1010.1 - 0.0
02/05:00pm 14.6 9.0 5.4 54 4.4 SSW 24 39 13 21 1009.8 1009.8 0.0
02/04:30pm 14.3 8.2 4.9 53 4.4 SW 26 35 14 19 1009.5 - 0.0
02/04:00pm 15.2 8.7 4.9 50 4.8 SSW 28 43 15 23 1008.7 1008.7 0.0
02/03:30pm 15.2 9.2 5.1 51 4.8 WSW 26 43 14 23 1008.1 - 0.0
02/03:07pm 15.8 8.3 3.6 44 5.6 SW 32 50 17 27 1007.9 - 0.0
02/03:00pm 17.8 11.8 3.3 38 6.7 SSW 24 37 13 20 1007.4 1007.4 0.0
02/02:30pm 17.6 11.7 3.9 40 6.4 SSW 24 32 13 17 1007.2 - 0.0
02/02:00pm 17.3 12.2 3.9 41 6.3 SSW 20 28 11 15 1007.4 1007.4 0.0
02/01:30pm 17.5 13.3 5.8 46 5.7 SSW 17 26 9 14 1007.6 - 0.0
02/01:00pm 17.3 12.9 6.5 49 5.3 SSW 19 28 10 15 1007.9 1007.9 0.0
02/12:30pm 17.1 13.0 6.0 48 5.4 SSW 17 24 9 13 1008.0 - 0.0
02/12:00pm 16.6 12.5 6.1 50 5.1 SSW 17 20 9 11 1008.5 1008.5 0.0
02/11:30am 15.9 12.0 7.1 56 4.3 S 17 22 9 12 1008.9 - 0.0
02/11:00am 17.0 13.2 5.9 48 5.4 S 15 20 8 11 1009.1 1009.1 0.0
02/10:30am 16.8 12.7 6.0 49 5.3 WSW 17 22 9 12 1008.9 - 0.0
02/10:00am 16.8 13.0 5.7 48 5.4 WSW 15 24 8 13 1009.0 1009.0 0.0
02/09:30am 17.1 12.8 7.2 52 4.9 W 19 28 10 15 1009.0 - 0.0
02/09:00am 16.9 14.3 7.8 55 4.6 W 11 20 6 11 1009.3 1009.3 0.0
02/08:30am 16.0 14.0 7.2 56 4.4 NW 7 9 4 5 1009.4 - 0.0
02/08:00am 14.6 13.0 7.9 64 3.3 WNW 6 9 3 5 1009.5 1009.5 0.0
02/07:30am 14.9 12.2 7.2 60 3.8 WNW 11 17 6 9 1009.7 - 0.0
02/07:00am 14.2 11.9 7.5 64 3.3 N 9 13 5 7 1009.6 1009.6 0.0
02/06:30am 13.9 11.5 7.2 64 3.3 N 9 13 5 7 1009.6 - 0.0
02/06:00am 14.3 13.4 7.6 64 3.3 WNW 2 9 1 5 1009.4 1009.4 0.0
02/05:30am 14.0 11.0 7.8 66 3.1 W 13 15 7 8 1009.3 - 0.0
02/05:00am 14.8 11.4 7.6 62 3.6 WSW 15 17 8 9 1009.1 1009.1 0.0
02/04:30am 13.8 11.6 8.0 68 2.9 SSW 9 11 5 6 1008.9 - 0.0
02/04:00am 12.6 11.3 9.1 79 1.8 W 6 7 3 4 1008.6 1008.6 0.0
02/03:30am 13.2 12.2 8.9 75 2.2 W 4 13 2 7 1008.5 - 0.0
02/03:00am 13.4 11.4 8.5 72 2.5 SW 9 13 5 7 1008.8 1008.8 0.0
02/02:30am 13.3 11.3 8.8 74 2.3 W 9 13 5 7 1008.8 - 0.0
02/02:00am 14.7 12.4 7.5 62 3.6 NNE 9 13 5 7 1008.6 1008.6 0.0
02/01:30am 15.0 12.8 7.8 62 3.6 NNE 9 9 5 5 1008.9 - 0.0
02/01:00am 14.8 12.9 7.6 62 3.6 NE 7 9 4 5 1009.3 1009.3 0.0
02/12:30am 15.0 13.2 7.8 62 3.6 NNE 7 9 4 5 1009.7 - 0.0
02/12:00am 15.7 13.9 7.2 57 4.2 NNE 6 7 3 4 1010.1 1010.1 0.0
 
Date/Time
EST
Tmp

°C
App
Tmp
°C
Dew
Point
°C
Rel
Hum
%
Delta-T

°C
Wind Press
QNH
hPa
Press
MSL
hPa
Rain
since
9 am
mm
Dir
 
Spd
km/h
Gust
km/h
Spd
kts
Gust
kts
01/11:30pm 16.1 13.7 7.1 55 4.5 N 9 11 5 6 1010.5 - 0.0
01/11:00pm 15.6 13.7 7.6 59 4.0 NNW 7 11 4 6 1010.8 1010.8 0.0
01/10:30pm 15.2 13.9 7.7 61 3.7 N 4 9 2 5 1011.0 - 0.0
01/10:00pm 15.9 14.0 7.4 57 4.2 N 7 11 4 6 1011.0 1011.0 0.0
01/09:30pm 16.6 14.1 6.7 52 4.9 NNW 9 9 5 5 1011.3 - 0.0
01/09:00pm 18.4 16.1 5.6 43 6.3 N 7 9 4 5 1011.5 1011.5 0.0
01/08:30pm 17.6 15.0 6.2 47 5.6 N 9 13 5 7 1011.8 - 0.0
01/08:00pm 17.4 14.1 6.6 49 5.3 NNW 13 15 7 8 1012.0 1012.0 0.0
01/07:30pm 17.2 14.1 7.3 52 5.0 WNW 13 19 7 10 1011.9 - 0.0
01/07:00pm 18.3 15.9 7.1 48 5.6 NW 9 13 5 7 1011.4 1011.4 0.0
01/06:30pm 18.5 15.9 7.6 49 5.5 WNW 11 13 6 7 1011.2 - 0.0
01/06:00pm 19.9 16.9 5.9 40 7.0 NW 11 15 6 8 1010.8 1010.8 0.0
01/05:30pm 20.5 17.3 6.8 41 6.9 NNW 13 15 7 8 1010.3 - 0.0
01/05:00pm 21.4 21.0 9.6 47 6.3 W 2 11 1 6 1010.4 1010.4 0.0
01/04:30pm 22.5 21.9 7.5 38 7.8 CALM 0 6 0 3 1010.3 - 0.0
01/04:00pm 23.2 21.3 6.5 34 8.6 SSE 6 9 3 5 1010.3 1010.3 0.0
01/03:30pm 23.7 23.0 8.5 38 8.1 NNE 2 7 1 4 1010.3 - 0.0
01/03:00pm 23.6 21.8 7.3 35 8.5 E 6 11 3 6 1010.5 1010.5 0.0
01/02:30pm 23.9 21.0 8.3 37 8.3 E 13 19 7 10 1010.6 - 0.0
01/02:00pm 22.7 19.7 7.7 38 7.8 E 13 19 7 10 1011.2 1011.2 0.0
01/01:30pm 23.0 20.9 8.3 39 7.8 NE 9 17 5 9 1011.8 - 0.0
01/01:00pm 22.3 19.8 8.1 40 7.5 NE 11 20 6 11 1012.4 1012.4 0.0
01/12:30pm 21.5 19.4 8.4 43 6.9 NNE 9 15 5 8 1013.1 - 0.0
01/12:00pm 22.1 19.3 8.6 42 7.1 NNE 13 17 7 9 1013.7 1013.7 0.0
01/11:30am 20.8 18.5 9.1 47 6.2 N 11 13 6 7 1014.2 - 0.0
01/11:00am 18.9 17.6 11.2 61 4.2 NE 9 13 5 7 1014.7 1014.7 0.0
01/10:30am 16.9 16.0 10.7 67 3.3 NE 6 13 3 7 1015.4 - 0.0
01/10:00am 14.4 13.5 10.8 79 1.9 ESE 6 7 3 4 1016.3 1016.3 0.0
01/09:30am 13.5 13.7 10.7 83 1.5 CALM 0 0 0 0 1016.8 - 0.0
01/09:09am 11.4 11.5 10.1 92 0.7 CALM 0 0 0 0 1017.2 - 0.0
01/09:00am 11.3 11.1 10.4 94 0.5 WSW 2 6 1 3 1017.3 1017.3 0.0
01/08:48am 10.6 10.7 10.0 96 0.3 CALM 0 0 0 0 1017.3 - 0.0
01/08:31am 9.6 8.7 9.3 98 0.1 SSW 4 7 2 4 1017.4 - 0.0
01/08:30am 9.7 8.8 9.4 98 0.1 SSW 4 7 2 4 1017.5 - 0.0
01/08:00am 8.5 8.1 8.2 98 0.1 CALM 0 0 0 0 1017.6 1017.6 0.0
01/07:30am 7.6 6.6 7.3 98 0.1 SSW 2 6 1 3 1017.3 - 0.0
01/07:13am 7.2 5.3 6.9 98 0.1 SSW 6 7 3 4 1017.1 - 0.0
01/07:00am 7.0 6.2 6.7 98 0.1 CALM 0 0 0 0 1017.1 1017.1 0.0
01/06:55am 6.9 6.1 6.6 98 0.1 CALM 0 2 0 1 1017.1 - 0.0
01/06:30am 6.4 4.2 6.1 98 0.1 NNE 7 7 4 4 1017.0 - 0.0
01/06:02am 6.9 5.4 6.6 98 0.1 NNE 4 7 2 4 1016.9 - 0.0
01/06:01am 6.9 5.7 6.6 98 0.1 NNE 2 7 1 4 1016.8 - 0.0
01/06:00am 6.9 5.7 6.6 98 0.1 NNE 2 7 1 4 1016.8 1016.8 0.0
01/05:30am 6.4 5.5 6.1 98 0.1 CALM 0 0 0 0 1016.7 - 0.0
01/05:00am 6.4 5.1 6.1 98 0.1 N 2 6 1 3 1016.6 1016.6 0.0
01/04:30am 6.8 6.0 6.5 98 0.1 CALM 0 0 0 0 1016.4 - 0.0
01/04:14am 6.8 6.0 6.5 98 0.1 CALM 0 0 0 0 1016.2 - 0.0
01/04:00am 6.7 5.9 6.4 98 0.1 CALM 0 0 0 0 1016.3 1016.3 0.0
01/03:53am 7.3 6.6 7.0 98 0.1 CALM 0 0 0 0 1016.3 - 0.0
01/03:30am 7.5 6.9 7.2 98 0.1 CALM 0 0 0 0 1016.2 - 0.0
01/03:00am 7.9 6.6 7.6 98 0.1 N 4 6 2 3 1016.3 1016.3 0.0
01/02:30am 8.4 8.0 8.1 98 0.1 CALM 0 0 0 0 1016.6 - 0.0
01/02:00am 8.5 8.1 8.1 97 0.2 CALM 0 0 0 0 1017.0 1017.0 0.0
01/01:42am 9.0 8.7 8.7 98 0.1 CALM 0 0 0 0 1017.1 - 0.0
01/01:34am 9.0 8.7 8.7 98 0.1 CALM 0 0 0 0 1017.2 - 0.0
01/01:32am 9.0 8.7 8.5 97 0.2 CALM 0 0 0 0 1017.3 - 0.0
01/01:30am 9.0 8.7 8.5 97 0.2 CALM 0 0 0 0 1017.3 - 0.0
01/01:00am 9.2 8.9 8.6 96 0.3 CALM 0 0 0 0 1017.5 1017.5 0.0
01/12:51am 9.4 9.1 8.8 96 0.3 CALM 0 0 0 0 1017.6 - 0.0
01/12:50am 9.3 9.0 8.7 96 0.3 CALM 0 0 0 0 1017.6 - 0.0
01/12:48am 9.3 9.0 8.7 96 0.3 CALM 0 0 0 0 1017.6 - 0.0
01/12:41am 9.4 9.1 8.8 96 0.3 CALM 0 0 0 0 1017.6 - 0.0
01/12:30am 9.6 9.3 8.7 94 0.4 CALM 0 0 0 0 1017.7 - 0.0
01/12:00am 10.5 10.5 9.7 95 0.4 CALM 0 0 0 0 1017.9 1017.9 0.0
 
Date/Time
EST
Tmp

°C
App
Tmp
°C
Dew
Point
°C
Rel
Hum
%
Delta-T

°C
Wind Press
QNH
hPa
Press
MSL
hPa
Rain
since
9 am
mm
Dir
 
Spd
km/h
Gust
km/h
Spd
kts
Gust
kts
31/11:30pm 10.9 10.9 9.8 93 0.6 CALM 0 0 0 0 1018.1 - 0.0
31/11:00pm 11.2 10.5 9.9 92 0.7 WSW 4 6 2 3 1018.3 1018.3 0.0
31/10:30pm 11.0 9.7 9.9 93 0.6 WSW 7 7 4 4 1018.3 - 0.0
31/10:00pm 11.2 9.9 9.9 92 0.7 W 7 9 4 5 1018.4 1018.4 0.0
31/09:30pm 12.0 12.1 10.2 89 0.9 CALM 0 0 0 0 1018.3 - 0.0
31/09:00pm 13.2 12.5 11.4 89 1.0 SE 6 7 3 4 1018.2 1018.2 0.0
31/08:30pm 13.3 12.2 10.8 85 1.3 SSW 7 9 4 5 1018.2 - 0.0
31/08:00pm 13.6 12.9 11.5 87 1.1 SSW 6 9 3 5 1018.3 1018.3 0.0
31/07:30pm 14.3 14.6 10.9 80 1.8 CALM 0 0 0 0 1017.9 - 0.0
31/07:00pm 15.6 14.1 11.8 78 2.1 E 11 13 6 7 1017.3 1017.3 0.0
31/06:30pm 16.5 14.2 11.9 74 2.5 ENE 15 19 8 10 1016.9 - 0.0
31/06:00pm 17.3 14.8 11.1 67 3.3 E 15 20 8 11 1016.6 1016.6 0.0
31/05:30pm 19.1 17.2 9.0 52 5.3 N 9 9 5 5 1016.4 - 0.0
31/05:00pm 20.1 18.3 9.4 50 5.7 NNE 9 13 5 7 1016.3 1016.3 0.0
31/04:30pm 21.0 18.9 8.3 44 6.6 ENE 9 13 5 7 1016.3 - 0.0
31/04:00pm 21.2 18.8 8.8 45 6.5 N 11 13 6 7 1016.4 1016.4 0.0
31/03:30pm 21.3 19.4 9.2 46 6.4 NE 9 15 5 8 1016.5 - 0.0
31/03:00pm 21.3 20.6 9.9 48 6.1 E 4 11 2 6 1016.6 1016.6 0.0
31/02:30pm 20.8 19.1 8.4 45 6.5 E 7 15 4 8 1016.8 - 0.0
31/02:00pm 21.2 19.4 10.7 51 5.7 E 11 19 6 10 1017.2 1017.2 0.0
31/01:30pm 20.3 18.4 9.2 49 5.9 NE 9 17 5 9 1017.7 - 0.0
31/01:00pm 20.5 19.3 9.4 49 5.9 N 6 11 3 6 1018.2 1018.2 0.0
31/12:30pm 19.5 17.8 8.5 49 5.7 ENE 7 13 4 7 1018.7 - 0.0
31/12:00pm 19.1 17.6 9.3 53 5.2 NW 7 11 4 6 1019.3 1019.3 0.0
31/11:30am 19.1 18.3 9.6 54 5.0 W 4 11 2 6 1019.7 - 0.0
31/11:00am 18.5 17.4 9.8 57 4.6 E 6 9 3 5 1020.2 1020.2 0.0
31/10:30am 17.9 16.2 9.8 59 4.3 WNW 9 15 5 8 1020.7 - 0.0
31/10:00am 17.2 15.4 9.4 60 4.1 W 9 13 5 7 1020.9 1020.9 0.0
31/09:30am 16.3 14.5 9.3 63 3.6 W 9 15 5 8 1021.2 - 0.0
31/09:00am 15.1 13.9 9.7 70 2.8 WSW 6 9 3 5 1021.5 1021.5 0.0
31/08:30am 13.8 12.4 9.5 75 2.2 WSW 7 13 4 7 1021.6 - 0.0
31/08:00am 12.6 12.7 10.0 84 1.3 CALM 0 6 0 3 1021.7 1021.7 0.0
31/07:30am 11.4 10.0 9.7 89 0.9 W 7 9 4 5 1021.5 - 0.0

Latest Capital City Observations: Canberra | Sydney | Melbourne | Brisbane | Adelaide | Perth | Hobart | Darwin

Other Formats:

Comma delimited format used in spreadsheet applications
http://www.bom.gov.au/fwo/IDN60901/IDN60901.95753.axf

JavaScript Object Notation format (JSON) in row-major order
http://www.bom.gov.au/fwo/IDN60901/IDN60901.95753.json